Time;durP1;ratioP1;P1;durP2;ratioP2;P2;SDS_P1;SDS_P2;PMS_P1;PMS_P2;Temp;Humidity;BMP_temperature;BMP_pressure;BME280_temperature;BME280_humidity;BME280_pressure;Samples;Min_cycle;Max_cycle;Signal;HPM_P1;HPM_P2
2022/01/17 00:01:38;;;;;;;16.50;12.67;;;;;;;4.59;71.69;96843.09;5015076;28;20206;-85
2022/01/17 00:04:05;;;;;;;16.27;13.03;;;;;;;4.63;72.00;96847.06;5016034;28;20223;-85
2022/01/17 00:06:31;;;;;;;17.40;13.00;;;;;;;4.63;71.46;96847.88;5014620;28;20249;-85
2022/01/17 00:08:58;;;;;;;14.53;12.27;;;;;;;4.64;71.26;96834.19;5015202;28;20206;-85
2022/01/17 00:11:24;;;;;;;16.20;13.60;;;;;;;4.64;71.12;96838.47;5013997;28;20226;-82
2022/01/17 00:13:50;;;;;;;17.20;12.70;;;;;;;4.64;70.96;96835.91;5015230;28;20576;-82
2022/01/17 00:16:21;;;;;;;17.53;13.17;;;;;;;4.70;70.38;96843.16;5014265;28;20234;-85
2022/01/17 00:19:30;;;;;;;16.77;13.33;;;;;;;4.60;70.69;96845.56;5012939;28;20572;-83
2022/01/17 00:21:56;;;;;;;14.60;12.20;;;;;;;4.58;70.73;96834.66;5014114;28;20668;-83
2022/01/17 00:24:22;;;;;;;14.37;12.10;;;;;;;4.62;70.35;96832.69;5015037;28;20246;-86
2022/01/17 00:26:52;;;;;;;14.07;12.43;;;;;;;4.53;70.63;96835.88;5016956;28;20613;-83
2022/01/17 00:29:18;;;;;;;17.53;13.57;;;;;;;4.41;70.21;96825.63;5017663;28;20206;-85
2022/01/17 00:31:45;;;;;;;15.93;12.40;;;;;;;4.47;70.17;96835.38;5014548;28;20302;-82
2022/01/17 00:34:13;;;;;;;15.80;12.47;;;;;;;4.48;69.86;96844.66;5015143;28;20222;-82
2022/01/17 00:36:40;;;;;;;15.23;12.77;;;;;;;4.50;69.35;96839.47;5014152;28;20257;-85
2022/01/17 00:39:06;;;;;;;15.53;12.50;;;;;;;4.46;69.07;96851.59;5013897;28;20206;-84
2022/01/17 00:41:33;;;;;;;16.50;13.27;;;;;;;4.48;69.26;96846.41;5014668;28;20195;-85
2022/01/17 00:43:59;;;;;;;15.53;12.50;;;;;;;4.44;69.36;96844.97;5014526;28;20226;-85
2022/01/17 00:46:26;;;;;;;14.23;12.63;;;;;;;4.44;69.29;96848.34;5013999;28;20230;-85
2022/01/17 00:48:52;;;;;;;12.97;11.40;;;;;;;4.53;68.99;96856.28;5015097;28;20213;-85
2022/01/17 00:51:21;;;;;;;14.80;12.13;;;;;;;4.57;68.72;96843.22;5015752;28;20205;-85
2022/01/17 00:53:48;;;;;;;15.43;12.47;;;;;;;4.57;68.31;96839.84;5014959;28;20698;-82
2022/01/17 00:56:14;;;;;;;15.80;12.00;;;;;;;4.41;68.33;96840.94;5013856;28;20226;-83
2022/01/17 00:58:41;;;;;;;14.83;12.47;;;;;;;4.50;68.35;96850.47;5019645;28;20230;-83
2022/01/17 01:01:07;;;;;;;16.80;12.07;;;;;;;4.59;68.45;96851.56;5019418;28;20222;-83
2022/01/17 01:03:33;;;;;;;15.97;12.60;;;;;;;4.57;67.88;96850.06;5017450;28;20211;-83
2022/01/17 01:06:00;;;;;;;14.70;11.10;;;;;;;4.56;68.21;96854.34;5016923;28;20230;-83
2022/01/17 01:08:28;;;;;;;14.37;11.70;;;;;;;4.58;67.62;96855.03;5016750;28;20202;-83
2022/01/17 01:10:54;;;;;;;13.80;11.83;;;;;;;4.54;67.41;96853.63;5016738;28;20207;-83
2022/01/17 01:13:22;;;;;;;13.67;11.50;;;;;;;4.61;67.60;96851.47;5016278;28;20250;-83
2022/01/17 01:16:09;;;;;;;13.20;10.63;;;;;;;4.51;67.30;96853.84;5016104;28;20231;-85
2022/01/17 01:18:49;;;;;;;13.80;11.00;;;;;;;4.55;67.17;96852.72;5016081;28;20323;-83
2022/01/17 01:29:27;;;;;;;13.80;10.60;;;;;;;4.37;66.36;96866.75;5015619;28;20213;-83
2022/01/17 01:31:58;;;;;;;12.90;10.43;;;;;;;4.35;66.20;96864.31;5015149;28;20194;-83
2022/01/17 01:34:33;;;;;;;12.00;10.00;;;;;;;4.43;66.13;96863.75;5016305;28;20223;-83
2022/01/17 01:36:59;;;;;;;12.40;9.37;;;;;;;4.43;65.84;96869.66;5014103;28;20604;-83
2022/01/17 01:39:27;;;;;;;14.20;10.27;;;;;;;4.43;65.17;96866.31;5015628;28;20207;-84
2022/01/17 01:41:53;;;;;;;11.10;9.33;;;;;;;4.36;65.34;96865.94;5014619;28;20206;-83
2022/01/17 01:44:22;;;;;;;9.90;8.60;;;;;;;4.28;65.18;96872.47;5014797;28;20225;-83
2022/01/17 01:46:50;;;;;;;10.43;8.43;;;;;;;4.28;65.15;96852.88;5013836;28;20223;-83
2022/01/17 01:49:18;;;;;;;11.20;8.60;;;;;;;4.26;65.63;96854.72;5013500;28;20202;-83
2022/01/17 01:51:45;;;;;;;11.93;8.50;;;;;;;4.22;65.18;96852.53;5014559;28;20209;-83
2022/01/17 01:54:13;;;;;;;10.30;8.27;;;;;;;4.24;65.40;96838.72;5013887;28;20223;-83
2022/01/17 01:56:43;;;;;;;10.50;8.93;;;;;;;4.25;65.90;96825.06;5012147;28;20222;-83
2022/01/17 01:59:10;;;;;;;10.47;8.40;;;;;;;4.24;65.57;96827.72;5013191;28;20222;-83
2022/01/17 02:01:37;;;;;;;10.07;7.80;;;;;;;4.14;66.21;96828.38;5012543;28;20191;-83
2022/01/17 02:04:04;;;;;;;11.20;8.27;;;;;;;4.08;66.44;96823.69;5013642;28;20230;-83
2022/01/17 02:06:32;;;;;;;9.43;8.30;;;;;;;4.14;66.33;96825.81;5011775;28;20580;-83
2022/01/17 02:08:59;;;;;;;9.03;7.70;;;;;;;4.16;66.23;96828.25;5013912;28;20236;-83
2022/01/17 02:11:25;;;;;;;9.43;7.90;;;;;;;4.21;66.06;96825.41;5014543;28;20610;-83
2022/01/17 02:13:53;;;;;;;9.20;7.67;;;;;;;4.27;65.88;96823.22;5014616;28;20238;-83
2022/01/17 02:16:23;;;;;;;9.93;7.50;;;;;;;4.33;65.36;96814.34;5014398;28;20230;-83
2022/01/17 02:18:50;;;;;;;8.60;7.03;;;;;;;4.31;65.35;96818.72;5014376;28;20309;-83
2022/01/17 02:21:31;;;;;;;9.17;7.10;;;;;;;4.36;65.41;96814.94;5013537;28;20306;-83
2022/01/17 02:24:01;;;;;;;9.50;7.33;;;;;;;4.41;64.82;96810.34;5013448;28;20556;-83
2022/01/17 02:26:29;;;;;;;8.23;6.90;;;;;;;4.29;64.95;96808.63;5012464;28;20241;-82
2022/01/17 02:28:57;;;;;;;7.73;6.47;;;;;;;4.28;64.99;96808.75;5012448;28;20850;-83
2022/01/17 02:31:24;;;;;;;9.13;6.73;;;;;;;4.22;65.00;96819.38;4993020;28;20210;-83
2022/01/17 02:33:53;;;;;;;7.90;6.07;;;;;;;4.19;64.94;96817.84;4993544;28;20576;-83
2022/01/17 02:36:21;;;;;;;7.57;6.30;;;;;;;4.28;65.01;96821.47;5014357;28;20268;-83
2022/01/17 02:38:48;;;;;;;7.33;6.03;;;;;;;4.25;64.95;96825.06;5015564;28;20225;-83
2022/01/17 02:41:14;;;;;;;6.73;5.73;;;;;;;4.34;65.15;96813.41;5016632;28;20202;-82
2022/01/17 02:43:41;;;;;;;7.13;5.80;;;;;;;4.38;64.90;96817.38;5017496;28;20203;-83
2022/01/17 02:46:26;;;;;;;6.70;6.00;;;;;;;4.32;65.44;96812.72;5017673;28;20238;-83
2022/01/17 02:48:53;;;;;;;7.93;6.40;;;;;;;4.30;65.55;96809.44;5015724;28;20187;-83
2022/01/17 02:51:21;;;;;;;6.87;5.47;;;;;;;4.35;65.38;96813.31;5019106;28;20198;-83
2022/01/17 02:53:48;;;;;;;7.67;6.43;;;;;;;4.28;65.52;96804.47;5017667;28;20206;-83
2022/01/17 02:56:14;;;;;;;7.67;5.97;;;;;;;4.36;65.63;96793.72;5017797;28;20227;-83
2022/01/17 02:58:42;;;;;;;9.10;5.53;;;;;;;4.30;65.92;96791.59;5018677;28;20223;-84
2022/01/17 03:01:10;;;;;;;7.43;6.23;;;;;;;4.29;66.30;96787.41;5019468;28;20222;-83
2022/01/17 03:03:38;;;;;;;6.80;5.80;;;;;;;4.31;66.21;96775.38;5019070;28;20202;-83
2022/01/17 03:08:36;;;;;;;6.27;5.63;;;;;;;4.24;66.55;96781.81;4991082;28;20219;-84
2022/01/17 03:11:06;;;;;;;6.63;5.93;;;;;;;4.17;66.86;96776.38;4996290;28;20207;-85
2022/01/17 03:13:36;;;;;;;6.63;5.40;;;;;;;4.23;66.43;96773.41;4979438;28;20613;-81
2022/01/17 03:16:05;;;;;;;6.43;5.80;;;;;;;4.27;66.61;96779.06;4976099;28;20232;-84
2022/01/17 03:18:36;;;;;;;6.67;5.63;;;;;;;4.19;66.41;96777.06;4975252;28;20242;-82
2022/01/17 03:21:03;;;;;;;6.83;5.83;;;;;;;4.14;66.19;96776.56;4957351;28;20748;-82
2022/01/17 03:23:30;;;;;;;7.23;6.00;;;;;;;4.14;66.39;96786.78;4960784;28;20196;-84
2022/01/17 03:25:57;;;;;;;7.20;6.33;;;;;;;4.10;66.42;96782.81;4975265;28;20228;-84
2022/01/17 03:28:25;;;;;;;7.17;6.37;;;;;;;4.19;66.21;96787.28;4975903;28;20200;-84
2022/01/17 03:30:52;;;;;;;7.17;6.10;;;;;;;4.29;65.84;96787.41;4976723;28;20197;-83
2022/01/17 03:33:19;;;;;;;6.67;5.97;;;;;;;4.28;66.00;96790.91;4976307;28;20216;-84
2022/01/17 03:35:45;;;;;;;7.03;6.03;;;;;;;4.26;66.12;96800.38;4974688;28;20237;-84
2022/01/17 03:38:15;;;;;;;6.87;5.90;;;;;;;4.29;66.20;96800.16;4975477;28;20231;-84
2022/01/17 03:40:46;;;;;;;6.90;6.17;;;;;;;4.18;66.66;96790.75;4976391;28;20228;-84
2022/01/17 03:43:17;;;;;;;8.00;6.27;;;;;;;4.22;67.02;96799.00;4976056;28;20201;-84
2022/01/17 03:45:45;;;;;;;8.40;6.00;;;;;;;4.17;67.68;96814.59;4967178;28;20309;-84
2022/01/17 03:48:12;;;;;;;8.00;6.13;;;;;;;4.27;67.15;96807.91;4976002;28;20712;-82
2022/01/17 03:50:39;;;;;;;8.10;6.30;;;;;;;4.23;67.47;96795.53;4976361;28;20204;-84
2022/01/17 03:53:05;;;;;;;8.13;6.00;;;;;;;4.05;68.91;96790.75;4974999;28;20673;-81
2022/01/17 03:55:34;;;;;;;7.53;6.23;;;;;;;4.02;69.24;96773.16;4975133;28;20231;-84
2022/01/17 03:58:01;;;;;;;7.93;6.10;;;;;;;3.92;70.09;96772.16;4974324;28;20798;-85
2022/01/17 04:00:31;;;;;;;8.23;6.10;;;;;;;3.88;71.22;96754.63;4975252;28;20296;-81
2022/01/17 04:02:59;;;;;;;6.07;5.23;;;;;;;3.95;71.29;96745.66;4975491;28;20207;-84
2022/01/17 04:05:26;;;;;;;7.30;6.17;;;;;;;3.98;71.35;96746.25;4974726;28;20590;-84
2022/01/17 04:07:52;;;;;;;7.47;6.30;;;;;;;4.03;71.46;96758.69;4974407;28;20223;-83
2022/01/17 04:10:19;;;;;;;7.57;6.37;;;;;;;4.04;71.77;96778.16;4974187;28;20200;-84
2022/01/17 04:12:46;;;;;;;6.93;6.20;;;;;;;4.09;71.48;96774.34;4975191;28;20212;-81
2022/01/17 04:15:13;;;;;;;6.63;5.80;;;;;;;4.21;70.79;96784.63;4975051;28;20208;-84
2022/01/17 04:17:42;;;;;;;6.57;5.87;;;;;;;4.24;71.12;96790.28;4974508;28;20224;-84
2022/01/17 04:20:13;;;;;;;7.67;6.10;;;;;;;4.25;70.70;96804.66;4975144;28;20239;-84
2022/01/17 04:22:45;;;;;;;7.30;6.20;;;;;;;4.34;70.62;96804.03;4974911;28;20200;-84
2022/01/17 04:25:12;;;;;;;8.07;6.50;;;;;;;4.35;70.70;96810.75;4974988;28;20215;-83
2022/01/17 04:27:38;;;;;;;6.80;6.00;;;;;;;4.34;70.94;96814.22;4975301;28;20224;-83
2022/01/17 04:30:07;;;;;;;7.87;6.33;;;;;;;4.38;70.35;96825.03;4975206;28;20196;-81
2022/01/17 04:32:33;;;;;;;7.47;6.33;;;;;;;4.37;70.53;96823.41;4975106;28;20215;-82
2022/01/17 04:35:01;;;;;;;7.57;6.20;;;;;;;4.34;70.66;96823.63;4974693;28;20204;-85
2022/01/17 04:37:27;;;;;;;8.87;6.60;;;;;;;4.28;70.96;96816.38;4973871;28;20236;-82
2022/01/17 04:39:54;;;;;;;7.80;6.57;;;;;;;4.25;71.42;96806.41;4973780;28;20216;-83
2022/01/17 04:42:27;;;;;;;8.30;6.60;;;;;;;4.27;71.13;96807.09;4974280;28;20211;-81
2022/01/17 04:45:09;;;;;;;7.67;6.40;;;;;;;4.33;70.84;96820.25;4974224;28;20292;-81
2022/01/17 04:47:37;;;;;;;6.37;5.63;;;;;;;4.28;71.37;96821.47;4973349;28;20232;-85
2022/01/17 04:50:06;;;;;;;6.57;5.87;;;;;;;4.25;71.24;96837.81;4973603;28;20228;-84
2022/01/17 04:52:33;;;;;;;7.40;6.20;;;;;;;4.25;71.30;96839.53;4973750;28;20207;-82
2022/01/17 04:55:02;;;;;;;7.50;6.53;;;;;;;4.40;71.01;96838.50;4973653;28;20204;-81
2022/01/17 04:57:29;;;;;;;7.27;6.13;;;;;;;4.36;70.89;96858.28;4971577;28;20236;-84
2022/01/17 04:59:55;;;;;;;6.87;6.17;;;;;;;4.36;71.13;96865.13;4973977;28;20224;-82
2022/01/17 05:02:22;;;;;;;7.67;5.97;;;;;;;4.37;70.74;96862.47;4972435;28;20193;-84
2022/01/17 05:04:48;;;;;;;6.57;5.77;;;;;;;4.37;71.00;96865.00;4973339;28;20211;-84
2022/01/17 05:07:16;;;;;;;7.43;5.80;;;;;;;4.43;70.75;96854.38;4972434;28;20235;-84
2022/01/17 05:09:44;;;;;;;6.63;5.63;;;;;;;4.35;70.84;96828.59;4973634;28;20204;-80
2022/01/17 05:12:11;;;;;;;6.73;6.03;;;;;;;4.34;70.66;96819.31;4974091;28;20247;-81
2022/01/17 05:14:40;;;;;;;6.97;6.20;;;;;;;4.21;71.63;96825.41;4973524;28;20210;-81
2022/01/17 05:17:22;;;;;;;7.10;5.63;;;;;;;4.18;71.81;96821.31;4972565;28;20713;-85
2022/01/17 05:19:48;;;;;;;7.03;5.93;;;;;;;4.07;71.81;96806.75;4973616;28;20235;-83
2022/01/17 05:22:16;;;;;;;8.33;6.30;;;;;;;3.97;72.17;96810.06;4973776;28;20204;-84
2022/01/17 05:24:43;;;;;;;6.80;5.77;;;;;;;3.97;72.57;96815.97;4972950;28;20208;-81
2022/01/17 05:27:09;;;;;;;7.37;5.60;;;;;;;3.98;72.23;96815.06;4972671;28;20240;-81
2022/01/17 05:29:36;;;;;;;5.40;4.90;;;;;;;4.09;72.00;96830.41;4972868;28;20221;-84
2022/01/17 05:32:03;;;;;;;6.87;5.47;;;;;;;4.11;71.65;96820.94;4972965;28;20204;-84
2022/01/17 05:34:29;;;;;;;7.83;5.83;;;;;;;4.23;71.09;96823.56;4973313;28;20200;-84
2022/01/17 05:36:56;;;;;;;7.33;6.07;;;;;;;4.26;71.16;96815.69;4972706;28;20232;-81
2022/01/17 05:39:24;;;;;;;6.53;5.60;;;;;;;4.30;71.12;96817.91;4973315;28;20216;-83
2022/01/17 05:41:50;;;;;;;6.10;5.40;;;;;;;4.31;70.75;96821.28;4965518;28;20217;-85
2022/01/17 05:44:17;;;;;;;6.80;5.70;;;;;;;4.27;71.22;96818.13;4962499;28;20208;-82
2022/01/17 05:46:43;;;;;;;7.13;5.63;;;;;;;4.21;71.39;96810.09;4967667;28;20259;-85
2022/01/17 05:49:10;;;;;;;6.23;5.30;;;;;;;4.22;71.26;96835.50;4966954;28;20208;-84
2022/01/17 05:51:37;;;;;;;6.63;5.53;;;;;;;4.31;71.37;96839.13;4971156;28;20204;-86
2022/01/17 05:54:04;;;;;;;6.47;5.43;;;;;;;4.39;70.18;96831.75;4969625;28;20212;-84
2022/01/17 05:56:32;;;;;;;6.30;5.47;;;;;;;4.36;70.48;96844.72;4969230;28;20228;-83
2022/01/17 05:58:59;;;;;;;6.77;5.33;;;;;;;4.41;70.87;96851.13;4970676;28;20253;-83
2022/01/17 06:01:26;;;;;;;6.10;5.13;;;;;;;4.42;70.53;96837.47;4967181;28;20200;-85
2022/01/17 06:03:52;;;;;;;6.07;5.23;;;;;;;4.40;70.56;96853.78;4962149;28;20211;-86
2022/01/17 06:06:19;;;;;;;6.70;5.50;;;;;;;4.45;70.40;96862.72;4965640;28;20697;-85
2022/01/17 06:08:46;;;;;;;6.13;5.53;;;;;;;4.48;70.17;96864.25;4970737;28;20240;-84
2022/01/17 06:11:12;;;;;;;6.40;5.40;;;;;;;4.54;70.24;96860.47;4975489;28;20718;-84
2022/01/17 06:13:40;;;;;;;6.80;5.50;;;;;;;4.50;70.07;96850.47;4976758;28;20262;-84
2022/01/17 06:16:07;;;;;;;6.97;5.60;;;;;;;4.51;69.90;96852.09;4975724;28;20231;-85
2022/01/17 06:18:36;;;;;;;7.43;5.30;;;;;;;4.53;70.41;96846.09;4975035;28;20693;-82
2022/01/17 06:21:02;;;;;;;5.83;4.97;;;;;;;4.49;70.55;96846.28;4975203;28;20214;-85
2022/01/17 06:23:29;;;;;;;7.37;5.27;;;;;;;4.57;69.80;96855.16;4975996;28;20199;-80
2022/01/17 06:25:55;;;;;;;6.17;5.30;;;;;;;4.48;70.17;96839.56;4976680;28;20303;-85
2022/01/17 06:28:22;;;;;;;5.90;5.30;;;;;;;4.51;70.12;96844.44;4992924;28;20226;-85
2022/01/17 06:30:50;;;;;;;7.07;5.77;;;;;;;4.55;69.75;96842.50;4994256;28;20207;-82
2022/01/17 06:33:16;;;;;;;6.23;5.43;;;;;;;4.62;69.53;96832.69;4975993;28;20216;-84
2022/01/17 06:35:43;;;;;;;6.23;5.30;;;;;;;4.66;69.53;96844.28;4976519;28;20235;-84
2022/01/17 06:38:10;;;;;;;6.50;5.57;;;;;;;4.62;69.35;96837.78;4976432;28;20223;-84
2022/01/17 06:40:36;;;;;;;6.23;5.37;;;;;;;4.65;69.61;96833.25;4976512;28;20576;-84
2022/01/17 06:43:04;;;;;;;6.17;5.37;;;;;;;4.61;69.57;96831.06;4975596;28;20219;-85
2022/01/17 06:45:31;;;;;;;6.30;5.47;;;;;;;4.57;69.51;96839.84;4976340;28;20251;-83
2022/01/17 06:48:00;;;;;;;10.03;8.30;;;;;;;4.50;70.24;96844.56;4976842;28;20604;-84
2022/01/17 06:50:26;;;;;;;7.13;5.70;;;;;;;4.47;71.16;96837.94;4976750;28;20239;-83
2022/01/17 06:52:53;;;;;;;6.70;5.73;;;;;;;4.52;72.09;96845.28;4976832;28;20426;-84
2022/01/17 06:55:20;;;;;;;6.57;5.03;;;;;;;4.63;70.68;96831.75;4976134;28;20200;-85
2022/01/17 06:57:46;;;;;;;6.20;5.17;;;;;;;4.66;69.97;96840.00;4976060;28;20227;-84
2022/01/17 07:00:14;;;;;;;6.33;5.70;;;;;;;4.62;70.29;96845.44;4975807;28;20595;-85
2022/01/17 07:02:40;;;;;;;6.63;5.50;;;;;;;4.58;70.28;96844.03;4974739;28;20219;-84
2022/01/17 07:05:09;;;;;;;6.13;5.23;;;;;;;4.63;70.10;96829.19;4976187;28;20204;-83
2022/01/17 07:07:35;;;;;;;6.27;5.50;;;;;;;4.57;70.34;96822.81;4974655;28;20840;-84
2022/01/17 07:10:02;;;;;;;5.53;4.93;;;;;;;4.56;70.74;96826.28;4974936;28;20207;-84
2022/01/17 07:12:28;;;;;;;7.30;5.37;;;;;;;4.58;70.53;96842.28;4974114;28;20212;-84
2022/01/17 07:14:55;;;;;;;5.53;4.73;;;;;;;4.60;70.54;96857.50;4975691;28;20207;-82
2022/01/17 07:17:21;;;;;;;6.20;4.97;;;;;;;4.65;70.63;96874.09;4973821;28;20232;-80
2022/01/17 07:19:48;;;;;;;7.33;5.83;;;;;;;4.60;70.65;96888.09;4975011;28;20312;-81
2022/01/17 07:22:18;;;;;;;5.93;4.93;;;;;;;4.55;71.02;96911.38;4974631;28;20208;-84
2022/01/17 07:24:47;;;;;;;6.97;5.37;;;;;;;4.58;71.16;96939.22;4975685;28;20200;-85
2022/01/17 07:27:13;;;;;;;6.70;5.23;;;;;;;4.60;71.10;96947.59;4974270;28;20235;-84
2022/01/17 07:29:40;;;;;;;5.67;4.73;;;;;;;4.64;71.11;96950.72;4975344;28;20205;-84
2022/01/17 07:32:08;;;;;;;6.57;4.97;;;;;;;4.65;70.61;96975.28;4975036;28;20204;-85
2022/01/17 07:34:34;;;;;;;6.00;4.77;;;;;;;4.67;70.82;96994.69;4975635;28;20570;-85
2022/01/17 07:37:01;;;;;;;6.30;5.50;;;;;;;4.68;70.92;97009.06;4974706;28;20239;-83
2022/01/17 07:39:28;;;;;;;5.70;4.70;;;;;;;4.70;70.55;96984.28;4975584;28;20223;-84
2022/01/17 07:41:55;;;;;;;6.27;5.07;;;;;;;4.68;71.19;96965.72;4975020;28;20573;-84
2022/01/17 07:44:24;;;;;;;5.00;4.40;;;;;;;4.64;70.94;96943.06;4974080;28;20207;-85
2022/01/17 07:46:55;;;;;;;5.23;4.70;;;;;;;4.61;71.80;96945.84;4973627;28;20232;-84
2022/01/17 07:49:21;;;;;;;6.77;5.17;;;;;;;4.56;72.03;96953.00;4974154;28;20196;-85
2022/01/17 07:51:50;;;;;;;5.13;4.60;;;;;;;4.61;72.01;96936.47;4974450;28;20211;-86
2022/01/17 07:54:18;;;;;;;6.10;4.63;;;;;;;4.65;71.66;96927.66;4974830;28;20549;-85
2022/01/17 07:56:47;;;;;;;5.90;4.90;;;;;;;4.63;72.04;96916.72;4973592;28;20259;-82
2022/01/17 07:59:14;;;;;;;5.37;4.80;;;;;;;4.58;72.45;96911.16;4974641;28;20222;-84
2022/01/17 08:01:41;;;;;;;5.87;5.27;;;;;;;4.65;72.70;96899.59;4974662;28;20196;-84
2022/01/17 08:04:08;;;;;;;5.77;5.13;;;;;;;4.65;72.87;96907.25;4975371;28;20239;-84
2022/01/17 08:06:36;;;;;;;5.50;4.57;;;;;;;4.65;73.07;96909.78;4973710;28;20948;-85
2022/01/17 08:09:04;;;;;;;6.63;4.70;;;;;;;4.69;73.02;96928.25;4973771;28;20223;-84
2022/01/17 08:11:31;;;;;;;5.80;5.13;;;;;;;4.72;73.04;96931.41;4972374;28;20609;-82
2022/01/17 08:13:59;;;;;;;5.57;4.70;;;;;;;4.76;73.65;96935.38;4974466;28;20243;-85
2022/01/17 08:16:25;;;;;;;5.33;4.73;;;;;;;4.78;73.71;96941.19;4974119;28;20243;-84
2022/01/17 08:18:52;;;;;;;5.53;4.87;;;;;;;4.79;73.76;96937.72;4973937;28;20200;-85
2022/01/17 08:21:19;;;;;;;5.93;5.33;;;;;;;4.80;74.06;96938.53;4974067;28;20208;-83
2022/01/17 08:23:45;;;;;;;5.63;5.07;;;;;;;4.69;74.66;96933.34;4972065;28;20211;-85
2022/01/17 08:26:12;;;;;;;6.43;5.47;;;;;;;4.69;74.78;96935.91;4973176;28;20224;-84
2022/01/17 08:28:40;;;;;;;6.97;5.50;;;;;;;4.72;74.80;96941.63;4974586;28;20212;-84
2022/01/17 08:31:08;;;;;;;7.03;5.67;;;;;;;4.66;75.48;96943.78;4974873;28;20215;-84
2022/01/17 08:33:35;;;;;;;7.67;5.20;;;;;;;4.70;75.00;96946.00;4973561;28;20200;-84
2022/01/17 08:36:01;;;;;;;5.80;5.23;;;;;;;4.74;75.04;96944.88;4974563;28;20231;-81
2022/01/17 08:38:29;;;;;;;5.70;5.10;;;;;;;4.81;75.07;96943.50;4973531;28;20201;-82
2022/01/17 08:40:55;;;;;;;9.10;7.70;;;;;;;4.76;75.66;96935.38;4974445;28;20314;-83
2022/01/17 08:43:22;;;;;;;5.60;4.90;;;;;;;4.80;75.05;96943.66;4974338;28;20262;-85
2022/01/17 08:45:49;;;;;;;6.70;5.47;;;;;;;4.79;75.77;96942.00;4973424;28;20724;-84
2022/01/17 08:48:16;;;;;;;5.50;4.93;;;;;;;4.82;75.44;96931.56;4974324;28;20255;-84
2022/01/17 08:50:46;;;;;;;5.77;5.17;;;;;;;4.94;75.10;96914.59;4973414;28;20227;-83
2022/01/17 08:53:13;;;;;;;5.80;5.20;;;;;;;4.91;75.46;96896.94;4973998;28;20204;-84
2022/01/17 08:55:40;;;;;;;6.17;5.27;;;;;;;4.86;75.64;96905.72;4974021;28;20234;-84
2022/01/17 08:58:07;;;;;;;6.37;5.17;;;;;;;5.02;75.17;96928.41;4973033;28;20299;-84
2022/01/17 09:00:34;;;;;;;6.27;5.57;;;;;;;5.08;75.54;96945.06;4975088;28;20232;-85
2022/01/17 09:03:02;;;;;;;6.43;5.23;;;;;;;5.07;75.03;96951.06;4974226;28;20212;-81
2022/01/17 09:05:30;;;;;;;6.47;5.53;;;;;;;5.16;74.91;96961.47;4973092;28;20282;-85
2022/01/17 09:07:57;;;;;;;7.37;5.10;;;;;;;5.37;73.90;96964.22;4973036;28;20618;-85
2022/01/17 09:10:24;;;;;;;5.87;5.20;;;;;;;5.34;73.61;96938.09;4977534;28;20195;-84
2022/01/17 09:12:51;;;;;;;6.13;5.20;;;;;;;5.31;74.10;96934.00;4974215;28;20204;-84
2022/01/17 09:15:18;;;;;;;8.33;5.20;;;;;;;5.34;74.16;96935.53;4973414;28;20267;-84
2022/01/17 09:17:44;;;;;;;6.93;5.30;;;;;;;5.39;73.76;96936.00;4972536;28;20228;-84
2022/01/17 09:20:12;;;;;;;6.07;5.30;;;;;;;5.66;73.00;96961.28;4974983;28;20685;-85
2022/01/17 09:22:40;;;;;;;5.37;4.83;;;;;;;5.71;72.15;96974.53;4974647;28;20192;-84
2022/01/17 09:25:09;;;;;;;5.63;5.13;;;;;;;5.68;72.11;96983.25;4974326;28;20208;-86
2022/01/17 09:27:36;;;;;;;6.27;5.30;;;;;;;5.68;72.04;97001.13;4973842;28;20247;-85
2022/01/17 09:30:05;;;;;;;5.30;4.80;;;;;;;5.66;72.04;96979.97;4973878;28;20192;-85
2022/01/17 09:32:31;;;;;;;5.87;5.27;;;;;;;5.71;71.92;96967.69;4974302;28;20924;-85
2022/01/17 09:34:58;;;;;;;7.87;5.33;;;;;;;5.63;72.10;96966.59;4973671;28;20210;-82
2022/01/17 09:37:24;;;;;;;5.60;5.00;;;;;;;5.77;71.56;96961.31;4972867;28;20663;-84
2022/01/17 09:39:52;;;;;;;6.63;5.10;;;;;;;6.11;70.47;96957.91;4971611;28;20220;-82
2022/01/17 09:42:19;;;;;;;6.83;5.07;;;;;;;6.43;69.62;96964.88;4972293;28;20210;-84
2022/01/17 09:44:45;;;;;;;5.30;4.50;;;;;;;6.43;68.86;96970.00;4973007;28;20196;-81
2022/01/17 09:47:13;;;;;;;6.60;5.40;;;;;;;6.21;69.34;96976.75;4971888;28;20243;-84
2022/01/17 09:49:43;;;;;;;6.07;4.87;;;;;;;6.02;69.81;96993.56;4972687;28;20192;-84
2022/01/17 09:52:34;;;;;;;5.90;5.23;;;;;;;5.83;70.74;96979.56;4972612;28;20234;-85
2022/01/17 09:55:07;;;;;;;6.30;5.10;;;;;;;5.79;71.14;96993.47;4972057;28;20688;-85
2022/01/17 09:57:38;;;;;;;7.77;5.00;;;;;;;5.80;70.77;97002.78;4959149;28;20224;-85
2022/01/17 10:00:07;;;;;;;6.23;4.40;;;;;;;5.94;70.43;96990.78;4973363;28;20235;-85
2022/01/17 10:02:34;;;;;;;6.00;4.93;;;;;;;6.06;69.93;96988.13;4972314;28;20196;-84
2022/01/17 10:05:05;;;;;;;7.20;4.73;;;;;;;6.10;69.94;96989.53;4972488;28;20206;-82
2022/01/17 10:07:53;;;;;;;5.53;5.03;;;;;;;6.00;70.39;96986.00;4972058;28;20235;-83
2022/01/17 10:10:36;;;;;;;5.87;4.50;;;;;;;5.92;70.66;96979.84;4968467;28;20624;-82
2022/01/17 10:13:08;;;;;;;6.83;5.03;;;;;;;5.83;70.68;96982.13;4971822;28;20608;-83
2022/01/17 10:15:45;;;;;;;8.50;7.03;;;;;;;5.84;70.55;96960.75;4972063;28;20238;-83
2022/01/17 10:18:25;;;;;;;5.03;4.53;;;;;;;5.76;70.91;96952.84;4971881;28;20923;-84
2022/01/17 10:20:56;;;;;;;4.97;4.30;;;;;;;5.83;70.82;96956.56;4973076;28;20586;-85
2022/01/17 10:23:40;;;;;;;5.53;4.70;;;;;;;5.81;70.74;96960.97;4973139;28;20210;-85
2022/01/17 10:26:17;;;;;;;5.53;4.77;;;;;;;5.82;70.48;96939.59;4972225;28;20232;-85
2022/01/17 10:29:08;;;;;;;4.77;4.30;;;;;;;5.86;70.48;96922.28;4970144;28;20204;-85
2022/01/17 10:37:07;;;;;;;4.97;4.40;;;;;;;5.85;70.51;96941.94;4972298;28;20282;-84
2022/01/17 10:39:37;;;;;;;4.93;4.40;;;;;;;5.76;70.97;96946.91;4972687;28;20208;-84
2022/01/17 10:42:23;;;;;;;4.60;4.10;;;;;;;5.82;70.89;96947.25;4961024;28;20204;-84
2022/01/17 10:44:50;;;;;;;5.03;3.83;;;;;;;5.77;70.99;96939.09;4972785;28;20212;-85
2022/01/17 10:47:26;;;;;;;6.33;4.50;;;;;;;5.83;70.67;96948.88;4971932;28;20553;-86
2022/01/17 10:49:55;;;;;;;5.30;4.43;;;;;;;5.91;70.44;96955.22;4971073;28;20210;-82
2022/01/17 10:52:33;;;;;;;4.97;4.10;;;;;;;5.79;70.82;96954.34;4970716;28;20579;-85
2022/01/17 10:55:04;;;;;;;5.00;4.47;;;;;;;5.85;70.86;96954.69;4958296;28;20200;-84
2022/01/17 10:57:39;;;;;;;6.30;4.43;;;;;;;5.96;70.16;96956.50;4972929;28;20616;-84
2022/01/17 11:00:09;;;;;;;7.13;5.53;;;;;;;5.84;69.90;96957.38;4971338;28;20231;-85
2022/01/17 11:02:36;;;;;;;5.40;4.73;;;;;;;5.90;70.53;96964.63;4971340;28;20279;-84
2022/01/17 11:05:06;;;;;;;5.20;4.30;;;;;;;5.88;70.22;96956.22;4976491;28;20224;-85
2022/01/17 11:07:38;;;;;;;5.13;4.40;;;;;;;5.96;70.42;96951.41;4975116;28;20234;-84
2022/01/17 11:10:08;;;;;;;5.57;4.40;;;;;;;6.02;70.02;96950.91;4976345;28;20207;-84
2022/01/17 11:12:35;;;;;;;5.13;4.37;;;;;;;6.05;70.12;96955.00;4975509;28;20192;-82
2022/01/17 11:15:02;;;;;;;6.93;4.30;;;;;;;6.12;69.76;96962.09;4975875;28;20204;-84
2022/01/17 11:17:34;;;;;;;4.40;3.90;;;;;;;6.11;69.65;96968.16;4974839;28;20239;-85
2022/01/17 11:20:06;;;;;;;5.10;3.97;;;;;;;5.97;69.69;96960.66;4976654;28;20212;-85
2022/01/17 11:22:34;;;;;;;4.87;4.17;;;;;;;5.92;69.91;96956.84;4975706;28;20263;-84
2022/01/17 11:25:01;;;;;;;6.07;4.10;;;;;;;5.95;69.70;96956.63;4973560;28;20255;-84
2022/01/17 11:27:27;;;;;;;4.57;3.90;;;;;;;5.93;69.94;96959.28;4975327;28;20239;-85
2022/01/17 11:29:57;;;;;;;5.30;4.17;;;;;;;6.02;70.11;96950.09;4975593;28;20207;-80
2022/01/17 11:32:24;;;;;;;5.23;4.07;;;;;;;6.09;69.66;96958.97;4974364;28;20204;-84
2022/01/17 11:34:51;;;;;;;6.43;4.10;;;;;;;6.17;69.21;96960.00;4974708;28;20637;-84
2022/01/17 11:37:20;;;;;;;4.50;3.73;;;;;;;6.11;69.34;96944.31;4973974;28;20247;-85
2022/01/17 11:39:48;;;;;;;4.97;3.80;;;;;;;6.08;69.16;96947.91;4974415;28;20238;-84
2022/01/17 11:42:30;;;;;;;5.87;4.33;;;;;;;6.09;69.11;96939.31;4974587;28;20207;-84
2022/01/17 11:44:57;;;;;;;4.73;4.07;;;;;;;6.12;69.08;96940.84;4974189;28;20228;-83
2022/01/17 11:47:49;;;;;;;4.33;3.93;;;;;;;6.31;68.64;96930.03;4974053;28;20265;-84
2022/01/17 11:50:41;;;;;;;4.70;4.20;;;;;;;6.64;67.87;96929.97;4960273;28;20262;-85
2022/01/17 11:53:37;;;;;;;5.00;4.23;;;;;;;6.63;67.43;96959.06;4975018;28;20208;-82
2022/01/17 11:56:04;;;;;;;5.17;4.13;;;;;;;6.51;67.24;96952.34;4975090;28;20609;-82
2022/01/17 11:58:37;;;;;;;5.87;4.27;;;;;;;6.38;67.88;96962.69;4974774;28;20779;-83
2022/01/17 12:01:16;;;;;;;5.13;4.17;;;;;;;6.37;67.85;96953.38;4976013;28;20235;-85
2022/01/17 12:03:46;;;;;;;5.07;4.27;;;;;;;6.40;67.37;96960.00;4973228;28;20574;-85